Terminal Aerodrome Forecast
Issued by NWS Lake Charles, LA

Home | Current Version | Previous Version | Text Only | Print | Product List | Glossary On
Versions: 1 2 3 4 5 6 7 8 9 10 11 12 13 14 15 16 17 18 19
000
FTUS44 KLCH 242334
TAFLCH
TAF
KLCH 242334Z 2500/2524 08009KT P6SM VCTS SCT025CB BKN040
     FM250200 09003KT P6SM BKN200
     FM250900 03006KT P6SM VCTS BKN015CB BKN040
     FM251800 04008KT P6SM VCTS BKN025CB BKN050=

USA.gov is the U.S. government's official web portal to all federal, state and local government web resources and services.